Terminal Aerodrome Forecast
Issued by NWS Jacksonville, FL

Home | Current Version | Previous Version | Text Only | Print | Product List | Glossary On
Versions: 1 2 3 4 5 6 7 8 9 10 11 12 13 14 15 16 17 18 19 20 21 22 23
912
FTUS42 KJAX 202339
TAFJAX
TAF
KJAX 202339Z 2100/2124 23005KT P6SM FEW045 SCT080
     FM210700 21005KT 6SM BR SCT003 BKN010
     FM211000 20004KT 1SM BR BKN002
     FM211400 21009KT 6SM BR BKN009
     FM211500 21010KT P6SM BKN015
     FM211700 21010G17KT P6SM VCTS BKN030CB=

USA.gov is the U.S. government's official web portal to all federal, state and local government web resources and services.